X  Sluiten METAR luchtvaart weer gegevens      EHAM Amsterdam Airport Schiphol
Temperatuur
6°C Temperatuur
1°C Dauwpunt
71% Vochtigheid



Wind
23 KM/U
14 MPH
6 M/S
12 KTS



330°
NNW
Huidig weer

Lichte Buien, Regen Lichte Buien, Regen
Luchtdruk 1024.04 (hPa) - 30.24 (inHg)
Zicht 6 (mijl) - 9.7 (km)
Vliegveld
Vliegveld code EHAM

Locatie : Amsterdam Airport Schiphol
Afstand: 2 (km)

Metar:
EHAM 202155Z 33012KT 300V010 9999 -SHRA FEW019 FEW025TCU 06/01 Q1024 NOSIG

Tijd: 20-04-2024 23:55 CEST